Time;durP1;ratioP1;P1;durP2;ratioP2;P2;SDS_P1;SDS_P2;PMS_P1;PMS_P2;Temp;Humidity;BMP_temperature;BMP_pressure;BME280_temperature;BME280_humidity;BME280_pressure;Samples;Min_cycle;Max_cycle;Signal;HPM_P1;HPM_P2
2021/12/16 00:01:51;;;;;;;29.10;15.73;;;4.90;99.90;;;;;;5032545;28;20500;-68
2021/12/16 00:09:41;;;;;;;31.63;16.23;;;4.90;99.90;;;;;;5031702;28;20036;-69
2021/12/16 00:31:28;;;;;;;27.60;15.23;;;4.90;99.90;;;;;;5022278;28;20033;-68
2021/12/16 00:34:01;;;;;;;28.60;14.65;;;4.90;99.90;;;;;;5004466;28;20179;-68
2021/12/16 00:36:35;;;;;;;31.20;16.05;;;4.90;99.90;;;;;;5023461;28;20040;-67
2021/12/16 00:39:08;;;;;;;25.83;14.20;;;4.90;99.90;;;;;;5013523;28;20025;-67
2021/12/16 00:41:35;;;;;;;27.15;15.35;;;4.90;99.90;;;;;;5009825;28;20038;-68
2021/12/16 00:44:13;;;;;;;27.77;15.93;;;4.90;99.90;;;;;;5012049;28;20419;-67
2021/12/16 00:54:40;;;;;;;31.20;16.00;;;4.90;99.90;;;;;;5031581;28;20191;-67
2021/12/16 00:57:12;;;;;;;31.95;15.43;;;4.90;99.90;;;;;;5012965;28;20397;-70
2021/12/16 00:59:41;;;;;;;31.73;16.38;;;4.90;99.90;;;;;;5004061;28;20029;-68
2021/12/16 01:50:15;;;;;;;30.92;15.60;;;5.00;99.90;;;;;;5030406;28;20024;-68
2021/12/16 01:56:47;;;;;;;26.95;14.18;;;5.00;99.90;;;;;;5031014;28;20040;-71
2021/12/16 01:58:38;;;;;;;26.77;14.75;;;5.00;99.90;;;;;;5021137;28;20042;-68
2021/12/16 02:01:16;;;;;;;26.95;14.63;;;5.10;99.90;;;;;;4999848;28;20034;-69
2021/12/16 02:03:52;;;;;;;31.15;15.18;;;5.10;99.90;;;;;;4995410;28;20033;-69
2021/12/16 02:07:09;;;;;;;24.85;14.73;;;5.10;99.90;;;;;;5015648;28;20056;-68
2021/12/16 02:09:46;;;;;;;27.23;14.88;;;5.10;99.90;;;;;;5030004;28;20685;-68
2021/12/16 02:12:49;;;;;;;29.42;15.07;;;5.10;99.90;;;;;;5006982;28;20475;-68
2021/12/16 02:31:45;;;;;;;25.20;14.40;;;5.10;99.90;;;;;;5026727;28;20033;-68
2021/12/16 02:34:25;;;;;;;29.15;15.07;;;5.10;99.90;;;;;;5011931;28;20049;-69
2021/12/16 02:36:53;;;;;;;28.52;15.00;;;5.10;99.90;;;;;;5032920;28;20041;-69
2021/12/16 02:39:28;;;;;;;29.00;14.25;;;5.10;99.90;;;;;;5027692;28;20022;-69
2021/12/16 02:42:06;;;;;;;26.77;13.35;;;5.10;99.90;;;;;;5013741;28;20033;-68
2021/12/16 02:48:27;;;;;;;28.42;13.98;;;5.10;99.90;;;;;;5026835;28;20075;-68
2021/12/16 02:50:05;;;;;;;26.85;13.77;;;5.10;99.90;;;;;;5033756;28;20037;-68
2021/12/16 02:52:30;;;;;;;25.52;13.32;;;5.10;99.90;;;;;;5022009;28;20091;-68
2021/12/16 02:54:57;;;;;;;27.83;14.48;;;5.10;99.90;;;;;;5015863;28;20425;-67
2021/12/16 02:57:24;;;;;;;28.83;15.25;;;5.10;99.90;;;;;;5014962;28;20053;-68
2021/12/16 02:59:52;;;;;;;31.42;14.07;;;5.10;99.90;;;;;;5034813;28;20029;-68
2021/12/16 03:02:19;;;;;;;25.50;14.02;;;5.10;99.90;;;;;;5014186;28;20060;-70
2021/12/16 03:04:48;;;;;;;29.95;15.10;;;5.00;99.90;;;;;;5004985;28;20029;-70
2021/12/16 03:07:16;;;;;;;26.92;13.80;;;5.00;99.90;;;;;;5008508;28;20022;-67
2021/12/16 03:15:00;;;;;;;26.95;14.70;;;5.10;99.90;;;;;;5028195;28;20108;-68
2021/12/16 03:17:36;;;;;;;27.50;14.57;;;5.00;99.90;;;;;;5023341;28;20449;-68
2021/12/16 03:20:16;;;;;;;27.40;13.18;;;5.00;99.90;;;;;;5015578;28;20132;-69
2021/12/16 03:35:53;;;;;;;26.00;12.87;;;5.00;99.90;;;;;;5038899;28;20493;-68
2021/12/16 03:38:21;;;;;;;25.08;12.98;;;4.90;99.90;;;;;;5014098;28;20275;-67
2021/12/16 03:40:47;;;;;;;27.90;13.85;;;4.90;99.90;;;;;;5021559;28;20036;-68
2021/12/16 03:43:17;;;;;;;26.38;13.40;;;4.90;99.90;;;;;;5021198;28;20037;-68
2021/12/16 03:48:46;;;;;;;26.67;13.52;;;5.00;99.90;;;;;;5011714;28;20049;-69
2021/12/16 03:51:21;;;;;;;28.45;14.38;;;4.90;99.90;;;;;;5002417;28;20071;-70
2021/12/16 03:53:49;;;;;;;25.85;13.52;;;4.90;99.90;;;;;;5029206;28;20116;-69
2021/12/16 03:56:17;;;;;;;23.85;12.98;;;4.90;99.90;;;;;;5013772;28;20076;-66
2021/12/16 03:58:43;;;;;;;27.90;13.10;;;4.90;99.90;;;;;;5020920;28;20489;-71
2021/12/16 04:01:13;;;;;;;24.27;13.27;;;4.90;99.90;;;;;;5011917;28;20121;-68
2021/12/16 04:03:39;;;;;;;24.42;12.25;;;4.90;99.90;;;;;;5026141;28;20029;-73
2021/12/16 04:06:05;;;;;;;24.95;13.55;;;4.90;99.90;;;;;;5024034;28;20022;-71
2021/12/16 04:08:31;;;;;;;23.95;12.77;;;4.90;99.90;;;;;;4994655;28;20026;-69
2021/12/16 04:11:06;;;;;;;24.02;12.02;;;4.90;99.90;;;;;;5001144;28;20026;-71
2021/12/16 04:13:41;;;;;;;23.00;12.40;;;4.90;99.90;;;;;;5005794;28;20382;-68
2021/12/16 04:16:06;;;;;;;23.45;12.05;;;4.90;99.90;;;;;;5009152;28;20025;-66
2021/12/16 04:18:33;;;;;;;23.73;12.68;;;4.80;99.90;;;;;;5013868;28;20079;-66
2021/12/16 04:20:59;;;;;;;23.85;12.85;;;4.80;99.90;;;;;;5014033;28;20017;-66
2021/12/16 04:23:25;;;;;;;21.35;11.85;;;4.80;99.90;;;;;;5014603;28;20063;-66
2021/12/16 04:25:50;;;;;;;24.20;12.57;;;4.80;99.90;;;;;;5014438;28;20478;-66
2021/12/16 04:28:23;;;;;;;24.88;12.23;;;4.80;99.90;;;;;;5013145;28;20022;-67
2021/12/16 04:30:49;;;;;;;23.05;12.20;;;4.80;99.90;;;;;;5012837;28;20423;-67
2021/12/16 04:33:15;;;;;;;25.60;13.50;;;4.80;99.90;;;;;;5016608;28;20075;-67
2021/12/16 04:35:41;;;;;;;23.88;12.27;;;4.80;99.90;;;;;;5101840;22;20049;-68
2021/12/16 04:38:09;;;;;;;26.60;12.35;;;4.80;99.90;;;;;;5051062;28;20021;-69
2021/12/16 04:40:36;;;;;;;23.90;12.40;;;4.80;99.90;;;;;;5050285;28;20484;-72
2021/12/16 04:43:04;;;;;;;22.77;12.55;;;4.80;99.90;;;;;;5031609;28;20505;-71
2021/12/16 04:45:32;;;;;;;24.98;12.80;;;4.80;99.90;;;;;;5029412;28;20029;-72
2021/12/16 04:47:58;;;;;;;21.67;11.15;;;4.80;99.90;;;;;;5029519;28;20063;-72
2021/12/16 04:50:27;;;;;;;21.85;11.35;;;4.80;99.90;;;;;;5033138;28;20107;-71
2021/12/16 04:52:53;;;;;;;22.38;12.13;;;4.80;99.90;;;;;;5028644;28;20493;-71
2021/12/16 04:55:20;;;;;;;22.38;12.30;;;4.90;99.90;;;;;;5025520;28;20071;-71
2021/12/16 04:57:47;;;;;;;23.05;12.25;;;4.90;99.90;;;;;;5016018;28;20029;-71
2021/12/16 05:00:18;;;;;;;21.05;11.20;;;4.90;99.90;;;;;;5020758;28;20032;-69
2021/12/16 05:02:45;;;;;;;23.60;12.27;;;4.90;99.90;;;;;;5010433;28;20120;-69
2021/12/16 05:05:12;;;;;;;22.20;11.82;;;4.90;99.90;;;;;;5023587;28;20021;-69
2021/12/16 05:07:40;;;;;;;23.67;12.35;;;4.90;99.90;;;;;;5037487;28;20052;-72
2021/12/16 05:10:09;;;;;;;22.20;12.90;;;5.00;99.90;;;;;;5037527;28;20037;-69
2021/12/16 05:12:49;;;;;;;21.92;11.75;;;5.00;99.90;;;;;;5029817;28;20030;-69
2021/12/16 05:15:19;;;;;;;22.85;12.38;;;5.00;99.90;;;;;;5029157;28;20040;-69
2021/12/16 05:17:50;;;;;;;22.77;12.52;;;5.00;99.90;;;;;;5018070;28;20040;-69
2021/12/16 05:20:20;;;;;;;22.73;11.98;;;4.90;99.90;;;;;;5013456;28;20029;-69
2021/12/16 05:28:36;;;;;;;22.27;11.70;;;4.90;99.90;;;;;;5012276;28;20026;-69
2021/12/16 05:31:03;;;;;;;22.45;12.27;;;5.00;99.90;;;;;;5024732;28;20045;-71
2021/12/16 05:33:29;;;;;;;21.50;11.73;;;5.00;99.90;;;;;;5037977;28;20026;-71
2021/12/16 05:35:56;;;;;;;26.23;12.90;;;5.00;99.90;;;;;;5022779;28;20037;-70
2021/12/16 05:38:24;;;;;;;21.35;12.27;;;5.00;99.90;;;;;;5032115;28;20022;-70
2021/12/16 05:40:50;;;;;;;22.40;11.65;;;5.00;99.90;;;;;;5030371;28;20103;-70
2021/12/16 05:43:17;;;;;;;23.15;11.93;;;4.90;99.90;;;;;;5030501;28;20021;-71
2021/12/16 05:45:45;;;;;;;21.63;11.98;;;5.00;99.90;;;;;;5030581;28;20488;-70
2021/12/16 05:48:14;;;;;;;23.42;12.32;;;5.00;99.90;;;;;;5028181;28;20116;-70
2021/12/16 05:50:49;;;;;;;23.60;11.50;;;5.00;99.90;;;;;;5027920;28;20037;-70
2021/12/16 05:53:16;;;;;;;22.60;12.38;;;5.00;99.90;;;;;;5030456;28;20044;-70
2021/12/16 05:55:42;;;;;;;22.70;11.90;;;5.00;99.90;;;;;;5030985;28;20425;-70
2021/12/16 05:58:10;;;;;;;23.85;12.18;;;5.00;99.90;;;;;;5031875;28;20037;-70
2021/12/16 06:00:41;;;;;;;21.05;11.77;;;5.00;99.90;;;;;;5029783;28;20172;-70
2021/12/16 06:03:07;;;;;;;22.08;12.10;;;5.00;99.90;;;;;;5029305;28;20546;-70
2021/12/16 06:05:34;;;;;;;22.90;11.68;;;5.00;99.90;;;;;;5046784;28;20029;-69
2021/12/16 06:08:00;;;;;;;21.73;12.38;;;5.00;99.90;;;;;;5023758;28;20120;-70
2021/12/16 06:13:11;;;;;;;23.10;12.60;;;5.00;99.90;;;;;;5034427;28;20135;-69
2021/12/16 06:29:05;;;;;;;26.77;12.95;;;4.90;99.90;;;;;;5040785;28;20021;-70
2021/12/16 06:31:31;;;;;;;21.55;11.68;;;4.90;99.90;;;;;;5033944;28;20025;-70
2021/12/16 06:33:57;;;;;;;26.27;11.98;;;4.90;99.90;;;;;;5034752;28;20124;-70
2021/12/16 06:36:23;;;;;;;22.38;12.38;;;4.90;99.90;;;;;;5032051;28;20112;-70
2021/12/16 06:38:49;;;;;;;26.33;12.20;;;4.90;99.90;;;;;;5032588;28;20072;-70
2021/12/16 06:41:16;;;;;;;23.55;11.73;;;4.90;99.90;;;;;;5034227;28;20037;-70
2021/12/16 06:43:43;;;;;;;24.58;12.32;;;5.00;99.90;;;;;;5035029;28;20140;-70
2021/12/16 06:46:13;;;;;;;28.17;13.00;;;4.90;99.90;;;;;;5036071;28;20021;-70
2021/12/16 06:48:42;;;;;;;26.67;11.68;;;5.00;99.90;;;;;;5035785;28;20086;-69
2021/12/16 06:51:12;;;;;;;29.40;12.98;;;4.90;99.90;;;;;;5029626;28;20032;-70
2021/12/16 06:53:49;;;;;;;25.05;12.23;;;4.90;99.90;;;;;;5031229;28;20036;-70
2021/12/16 06:56:31;;;;;;;25.30;11.75;;;4.90;99.90;;;;;;5033561;28;20112;-70
2021/12/16 06:59:07;;;;;;;24.60;12.02;;;4.90;99.90;;;;;;5033438;28;20029;-70
2021/12/16 07:01:48;;;;;;;26.98;12.75;;;4.90;99.90;;;;;;5034073;28;20036;-70
2021/12/16 07:04:17;;;;;;;23.65;12.88;;;4.90;99.90;;;;;;5033812;28;20040;-70
2021/12/16 07:06:43;;;;;;;24.50;12.27;;;4.90;99.90;;;;;;5040893;28;20028;-70
2021/12/16 07:09:15;;;;;;;25.23;12.23;;;4.90;99.90;;;;;;5046581;28;20029;-70
2021/12/16 07:11:48;;;;;;;24.27;12.43;;;4.90;99.90;;;;;;5033092;28;20029;-71
2021/12/16 07:14:16;;;;;;;26.85;13.00;;;4.80;99.90;;;;;;5040813;28;20489;-70
2021/12/16 07:16:44;;;;;;;23.75;12.10;;;4.80;99.90;;;;;;5033997;28;20029;-72
2021/12/16 07:19:10;;;;;;;26.00;13.07;;;4.80;99.90;;;;;;5032522;28;20083;-72
2021/12/16 07:21:38;;;;;;;25.52;12.35;;;4.80;99.90;;;;;;5033839;28;20085;-72
2021/12/16 07:24:15;;;;;;;27.40;13.80;;;4.80;99.90;;;;;;5031295;28;20096;-71
2021/12/16 07:26:42;;;;;;;28.77;13.65;;;4.80;99.90;;;;;;5033146;28;20036;-72
2021/12/16 07:29:08;;;;;;;27.90;12.82;;;4.80;99.90;;;;;;5032447;28;20068;-71
2021/12/16 07:31:36;;;;;;;23.83;12.18;;;4.80;99.90;;;;;;5032815;28;20029;-71
2021/12/16 07:34:03;;;;;;;24.38;11.88;;;4.70;99.90;;;;;;5032565;28;20057;-71
2021/12/16 07:36:30;;;;;;;25.27;12.27;;;4.70;99.90;;;;;;5032684;28;20045;-71
2021/12/16 07:38:56;;;;;;;26.88;12.45;;;4.80;99.90;;;;;;5030201;28;20045;-71
2021/12/16 07:41:26;;;;;;;24.13;12.27;;;4.80;99.90;;;;;;5032704;28;20490;-71
2021/12/16 07:44:09;;;;;;;24.70;12.68;;;4.80;99.90;;;;;;5032539;28;20026;-72
2021/12/16 07:46:57;;;;;;;27.38;12.55;;;4.80;99.90;;;;;;5032978;28;20022;-71
2021/12/16 07:49:33;;;;;;;28.50;12.18;;;4.80;99.90;;;;;;5031516;28;20032;-71
2021/12/16 07:52:00;;;;;;;32.22;16.65;;;4.80;99.90;;;;;;5028555;28;20038;-71
2021/12/16 07:54:27;;;;;;;26.75;12.77;;;4.80;99.90;;;;;;5031979;28;20488;-71
2021/12/16 07:56:55;;;;;;;23.02;12.32;;;4.80;99.90;;;;;;5030945;28;20042;-71
2021/12/16 07:59:23;;;;;;;25.13;12.07;;;4.80;99.90;;;;;;5031299;28;20044;-72
2021/12/16 08:01:49;;;;;;;32.60;14.35;;;4.80;99.90;;;;;;5032125;28;20556;-71
2021/12/16 08:04:20;;;;;;;24.98;12.23;;;4.90;99.90;;;;;;5032098;28;20029;-71
2021/12/16 08:06:50;;;;;;;24.92;12.52;;;4.80;99.90;;;;;;5033419;28;20025;-71
2021/12/16 08:09:17;;;;;;;25.20;12.15;;;4.80;99.90;;;;;;5030767;28;20033;-71
2021/12/16 08:11:44;;;;;;;25.05;11.55;;;4.90;99.90;;;;;;5031398;28;20036;-71
2021/12/16 08:14:10;;;;;;;22.55;11.55;;;4.90;99.90;;;;;;5032034;28;20029;-72
2021/12/16 08:16:37;;;;;;;21.27;11.07;;;4.90;99.90;;;;;;5031728;28;20153;-71
2021/12/16 08:19:04;;;;;;;23.13;12.07;;;4.90;99.90;;;;;;5031324;28;20029;-71
2021/12/16 08:21:30;;;;;;;26.70;12.13;;;4.90;99.90;;;;;;5029255;28;20147;-71
2021/12/16 08:23:58;;;;;;;23.30;12.15;;;4.90;99.90;;;;;;5030867;28;20112;-72
2021/12/16 08:26:25;;;;;;;25.80;11.38;;;4.90;99.90;;;;;;5039382;28;20017;-71
2021/12/16 08:28:54;;;;;;;23.17;12.55;;;4.90;99.90;;;;;;5031895;28;20040;-73
2021/12/16 08:31:20;;;;;;;21.60;11.48;;;4.90;99.90;;;;;;5043942;28;20030;-73
2021/12/16 08:33:48;;;;;;;22.83;12.10;;;4.90;99.90;;;;;;5029137;28;20036;-73
2021/12/16 08:36:15;;;;;;;21.95;11.52;;;4.90;99.90;;;;;;5011576;28;20044;-74
2021/12/16 08:38:42;;;;;;;23.27;12.27;;;5.00;99.90;;;;;;5021980;28;20025;-73
2021/12/16 08:41:16;;;;;;;23.42;12.55;;;4.90;99.90;;;;;;5031860;28;20029;-75
2021/12/16 08:43:44;;;;;;;24.85;11.88;;;5.00;99.90;;;;;;5039894;28;20056;-74
2021/12/16 08:46:12;;;;;;;23.05;12.27;;;4.90;99.90;;;;;;5027699;28;20060;-74
2021/12/16 08:48:39;;;;;;;22.08;11.40;;;4.90;99.90;;;;;;5040610;28;20029;-70
2021/12/16 08:51:06;;;;;;;19.58;10.63;;;4.90;99.90;;;;;;5030739;28;20108;-72
2021/12/16 08:53:32;;;;;;;24.25;11.85;;;5.00;99.90;;;;;;5029206;28;20028;-72
2021/12/16 08:55:58;;;;;;;21.15;11.40;;;5.00;99.90;;;;;;5030908;28;20021;-72
2021/12/16 08:58:25;;;;;;;22.45;10.88;;;5.00;99.90;;;;;;5029806;28;20120;-73
2021/12/16 09:00:59;;;;;;;21.13;11.30;;;5.00;99.90;;;;;;5029771;28;20033;-72
2021/12/16 09:03:27;;;;;;;21.88;10.82;;;5.00;99.90;;;;;;5023771;28;20055;-72
2021/12/16 09:05:54;;;;;;;22.38;11.88;;;5.00;99.90;;;;;;5037579;28;20033;-71
2021/12/16 09:08:20;;;;;;;19.88;11.52;;;5.00;99.90;;;;;;5026945;28;20022;-73
2021/12/16 09:10:46;;;;;;;22.50;10.95;;;5.00;99.90;;;;;;5031626;28;20033;-73
2021/12/16 09:13:15;;;;;;;21.63;12.05;;;5.00;99.90;;;;;;5030667;28;20447;-72
2021/12/16 09:15:46;;;;;;;21.80;11.18;;;5.00;99.90;;;;;;5030509;28;20176;-73
2021/12/16 09:18:15;;;;;;;24.65;13.27;;;5.00;99.90;;;;;;5029819;28;20481;-73
2021/12/16 09:20:40;;;;;;;20.77;11.68;;;5.00;99.90;;;;;;5030021;28;20029;-72
2021/12/16 09:23:08;;;;;;;23.38;11.75;;;5.00;99.90;;;;;;5033751;28;20511;-72
2021/12/16 09:25:34;;;;;;;23.25;12.50;;;5.10;99.90;;;;;;5042472;28;20028;-72
2021/12/16 09:28:00;;;;;;;20.20;10.68;;;5.10;99.90;;;;;;5032106;28;20112;-72
2021/12/16 09:30:27;;;;;;;23.55;11.93;;;5.10;99.90;;;;;;5029660;28;20075;-71
2021/12/16 09:32:58;;;;;;;23.70;11.35;;;5.10;99.90;;;;;;5030081;28;20036;-71
2021/12/16 09:35:25;;;;;;;22.65;11.82;;;5.10;99.90;;;;;;5029685;28;20385;-70
2021/12/16 09:37:51;;;;;;;21.40;11.02;;;5.10;99.90;;;;;;5028866;28;20041;-72
2021/12/16 09:40:23;;;;;;;21.23;11.13;;;5.10;99.90;;;;;;5030139;28;20030;-72
2021/12/16 09:42:51;;;;;;;20.48;11.32;;;5.10;99.90;;;;;;5029936;28;20481;-72
2021/12/16 09:45:18;;;;;;;19.83;11.27;;;5.10;99.90;;;;;;5030058;28;20021;-71
2021/12/16 09:47:44;;;;;;;19.70;10.70;;;5.20;99.90;;;;;;5028458;28;20029;-72
2021/12/16 09:50:15;;;;;;;19.33;10.77;;;5.20;99.90;;;;;;5029763;28;20028;-71
2021/12/16 09:52:40;;;;;;;20.75;11.18;;;5.20;99.90;;;;;;5027964;28;20025;-72
2021/12/16 09:55:08;;;;;;;17.50;9.75;;;5.20;99.90;;;;;;5029710;28;20052;-70
2021/12/16 09:57:34;;;;;;;17.27;10.15;;;5.30;99.90;;;;;;5029242;28;20388;-73
2021/12/16 10:00:01;;;;;;;20.88;10.80;;;5.30;99.90;;;;;;5029585;28;20028;-73
2021/12/16 10:02:28;;;;;;;18.67;10.20;;;5.40;99.90;;;;;;5032233;28;20033;-71
2021/12/16 10:04:54;;;;;;;22.23;10.85;;;5.40;99.90;;;;;;5033793;28;20116;-72
2021/12/16 10:07:23;;;;;;;18.02;10.85;;;5.40;99.90;;;;;;5028606;28;20124;-73
2021/12/16 10:09:51;;;;;;;19.92;10.48;;;5.40;99.90;;;;;;5029835;28;20041;-74
2021/12/16 10:12:23;;;;;;;19.20;10.57;;;5.40;99.90;;;;;;5029534;28;20052;-72
2021/12/16 10:17:26;;;;;;;17.35;10.13;;;5.40;99.90;;;;;;5030165;28;20083;-73
2021/12/16 10:19:59;;;;;;;17.23;10.07;;;5.40;99.90;;;;;;5029957;28;20513;-73
2021/12/16 10:22:32;;;;;;;19.08;10.90;;;5.40;99.90;;;;;;5026679;28;20030;-73
2021/12/16 10:25:25;;;;;;;19.70;10.90;;;5.50;99.90;;;;;;5029605;28;20029;-73
2021/12/16 10:28:14;;;;;;;18.77;11.02;;;5.50;99.90;;;;;;5025438;28;20117;-70
2021/12/16 10:31:02;;;;;;;22.63;11.77;;;5.50;99.90;;;;;;5028230;28;20612;-71
2021/12/16 10:33:49;;;;;;;20.52;11.30;;;5.50;99.90;;;;;;5029804;28;20034;-71
2021/12/16 10:36:26;;;;;;;22.45;11.70;;;5.50;99.90;;;;;;5029103;28;20034;-73
2021/12/16 10:39:04;;;;;;;17.45;9.68;;;5.50;99.90;;;;;;5028617;28;20034;-73
2021/12/16 10:41:40;;;;;;;17.55;10.40;;;5.50;99.90;;;;;;5063056;22;20149;-68
2021/12/16 10:44:14;;;;;;;23.83;10.82;;;5.50;99.90;;;;;;5046311;28;20028;-68
2021/12/16 10:46:44;;;;;;;18.65;11.23;;;5.50;99.90;;;;;;5053113;28;20423;-67
2021/12/16 10:49:27;;;;;;;19.25;10.32;;;5.50;99.90;;;;;;5051280;28;20400;-68
2021/12/16 10:51:55;;;;;;;20.55;10.77;;;5.50;99.90;;;;;;5035838;28;20037;-67
2021/12/16 10:54:30;;;;;;;17.48;10.25;;;5.50;99.90;;;;;;5046386;28;20480;-67
2021/12/16 10:57:02;;;;;;;19.63;10.70;;;5.60;99.90;;;;;;5056439;28;20028;-67
2021/12/16 10:59:31;;;;;;;18.37;10.97;;;5.50;99.90;;;;;;5056340;28;20032;-67
2021/12/16 11:02:19;;;;;;;20.33;10.52;;;5.50;99.90;;;;;;5074234;28;20789;-68
2021/12/16 11:04:45;;;;;;;18.15;9.98;;;5.60;99.90;;;;;;5055786;28;20048;-67
2021/12/16 11:07:13;;;;;;;18.23;9.75;;;5.60;99.90;;;;;;5075651;28;20409;-68
2021/12/16 11:09:42;;;;;;;15.13;9.57;;;5.60;99.90;;;;;;5061606;28;20482;-68
2021/12/16 11:12:19;;;;;;;17.52;9.40;;;5.60;99.90;;;;;;5049061;28;20055;-67
2021/12/16 11:14:50;;;;;;;17.17;9.98;;;5.60;99.90;;;;;;5056228;28;20029;-67
2021/12/16 11:17:18;;;;;;;18.65;10.30;;;5.60;99.90;;;;;;5049579;28;20085;-67
2021/12/16 11:19:55;;;;;;;16.08;9.27;;;5.60;99.90;;;;;;5055456;28;20036;-66
2021/12/16 11:22:28;;;;;;;16.88;9.35;;;5.60;99.90;;;;;;5055580;28;20025;-68
2021/12/16 11:24:54;;;;;;;18.55;10.45;;;5.60;99.90;;;;;;5055397;28;20111;-67
2021/12/16 11:27:25;;;;;;;15.93;9.77;;;5.60;99.90;;;;;;5055349;28;20119;-69
2021/12/16 11:29:51;;;;;;;18.55;11.40;;;5.70;99.90;;;;;;5042114;28;20539;-67
2021/12/16 11:32:42;;;;;;;18.13;9.98;;;5.70;99.90;;;;;;5053319;28;20024;-68
2021/12/16 11:35:31;;;;;;;18.05;10.77;;;5.80;99.90;;;;;;5043634;28;20021;-66
2021/12/16 11:38:02;;;;;;;17.38;9.80;;;5.70;99.90;;;;;;5053492;28;20032;-67
2021/12/16 11:40:27;;;;;;;17.83;9.65;;;5.70;99.90;;;;;;5055076;28;20044;-67
2021/12/16 11:43:05;;;;;;;15.57;9.43;;;5.70;99.90;;;;;;5054566;28;20401;-68
2021/12/16 11:45:37;;;;;;;16.60;9.07;;;5.80;99.90;;;;;;5056371;28;20052;-66
2021/12/16 11:48:05;;;;;;;18.58;9.25;;;5.80;99.90;;;;;;5050737;28;20029;-66
2021/12/16 11:50:38;;;;;;;15.98;9.48;;;5.90;99.90;;;;;;5050841;28;20020;-66
2021/12/16 11:53:04;;;;;;;;;;;6.00;99.90;;;;;;5048080;28;20086;-68
2021/12/16 11:55:35;;;;;;;18.45;9.38;;;6.00;99.90;;;;;;5054862;28;19950;-68
2021/12/16 11:58:03;;;;;;;15.95;9.50;;;6.00;99.90;;;;;;5053714;28;20098;-67
2021/12/16 12:00:33;;;;;;;14.00;8.98;;;6.00;99.90;;;;;;5054635;28;20028;-66
2021/12/16 12:03:03;;;;;;;15.68;9.48;;;6.10;99.90;;;;;;5066615;28;20042;-67
2021/12/16 12:05:36;;;;;;;15.50;9.20;;;6.10;99.90;;;;;;5054884;28;20017;-67
2021/12/16 12:08:08;;;;;;;15.95;9.50;;;6.20;99.90;;;;;;5053561;28;20055;-67
2021/12/16 12:10:43;;;;;;;15.30;9.35;;;6.20;99.90;;;;;;5055230;28;20127;-68
2021/12/16 12:13:22;;;;;;;15.35;9.45;;;6.20;99.90;;;;;;5043142;28;20029;-68
2021/12/16 12:16:06;;;;;;;18.52;10.63;;;6.10;99.90;;;;;;5051413;28;20124;-68
2021/12/16 12:18:33;;;;;;;16.30;9.55;;;6.10;99.90;;;;;;5078583;28;20024;-67
2021/12/16 12:21:29;;;;;;;16.30;9.68;;;6.20;99.90;;;;;;5061580;28;20028;-67
2021/12/16 12:24:02;;;;;;;16.52;9.52;;;6.20;99.90;;;;;;5055086;28;20048;-67
2021/12/16 12:26:31;;;;;;;16.35;9.52;;;6.20;99.90;;;;;;5054696;28;20472;-67
2021/12/16 12:29:04;;;;;;;15.20;9.18;;;6.30;99.90;;;;;;5063829;28;20070;-69
2021/12/16 12:31:32;;;;;;;14.27;8.90;;;6.30;99.90;;;;;;5054194;28;20025;-68
2021/12/16 12:33:58;;;;;;;16.83;11.00;;;6.40;99.90;;;;;;5080714;28;20047;-67
2021/12/16 12:36:25;;;;;;;14.40;8.95;;;6.40;99.90;;;;;;5064160;28;20438;-67
2021/12/16 12:38:52;;;;;;;17.65;10.18;;;6.50;99.90;;;;;;5053962;28;20124;-68
2021/12/16 12:41:18;;;;;;;16.63;10.68;;;6.60;99.90;;;;;;5053732;28;20072;-68
2021/12/16 12:43:45;;;;;;;13.00;9.10;;;6.60;99.90;;;;;;5054578;28;20785;-68
2021/12/16 12:46:13;;;;;;;14.70;9.68;;;6.60;99.90;;;;;;5053458;28;20021;-68
2021/12/16 12:48:42;;;;;;;17.58;10.00;;;6.60;99.90;;;;;;5058028;28;20074;-68
2021/12/16 12:51:09;;;;;;;14.40;9.02;;;6.60;99.90;;;;;;5053403;28;20504;-67
2021/12/16 12:53:34;;;;;;;17.85;10.02;;;6.70;99.90;;;;;;5054309;28;20052;-67
2021/12/16 12:56:14;;;;;;;15.80;9.40;;;6.60;99.90;;;;;;5070564;28;20495;-68
2021/12/16 12:58:54;;;;;;;19.20;9.95;;;6.70;99.90;;;;;;5053046;28;20028;-68
2021/12/16 13:01:33;;;;;;;15.80;9.20;;;6.70;99.90;;;;;;5053517;28;20033;-69
2021/12/16 13:04:12;;;;;;;17.40;9.68;;;6.80;99.90;;;;;;5053839;28;20024;-67
2021/12/16 13:06:56;;;;;;;17.58;9.98;;;6.80;99.90;;;;;;5065524;28;20095;-67
2021/12/16 13:09:23;;;;;;;;;;;6.80;99.90;;;;;;5053437;28;20020;-67
2021/12/16 13:11:48;;;;;;;16.38;8.77;;;6.90;99.90;;;;;;5053179;28;19908;-67
2021/12/16 13:14:22;;;;;;;15.75;9.25;;;7.00;99.90;;;;;;5052987;28;20381;-67
2021/12/16 13:28:56;;;;;;;16.05;8.48;;;7.50;99.90;;;;;;5073657;28;20031;-66
2021/12/16 13:31:38;;;;;;;14.15;8.55;;;7.70;99.90;;;;;;5069552;28;20480;-68
2021/12/16 13:34:05;;;;;;;11.98;8.07;;;7.90;99.90;;;;;;5054738;28;20713;-68
2021/12/16 13:36:42;;;;;;;12.85;7.93;;;8.10;99.90;;;;;;5045577;28;20025;-67
2021/12/16 13:39:11;;;;;;;12.70;7.68;;;8.20;99.90;;;;;;5035855;28;20024;-67
2021/12/16 13:41:56;;;;;;;12.15;8.02;;;8.20;99.90;;;;;;5062204;28;20032;-68
2021/12/16 13:44:38;;;;;;;16.35;8.93;;;8.20;99.90;;;;;;5047674;28;20492;-67
2021/12/16 13:47:13;;;;;;;13.77;8.23;;;8.20;99.90;;;;;;5052603;28;20499;-67
2021/12/16 14:02:28;;;;;;;15.55;9.20;;;7.80;99.90;;;;;;5051273;28;20037;-67
2021/12/16 14:05:16;;;;;;;15.18;8.90;;;7.80;99.90;;;;;;5052320;28;20028;-68
2021/12/16 14:07:57;;;;;;;16.77;8.88;;;7.70;99.90;;;;;;5052093;28;20028;-67
2021/12/16 14:10:47;;;;;;;17.38;9.68;;;7.70;99.90;;;;;;5053284;28;20431;-67
2021/12/16 14:16:20;;;;;;;16.67;9.82;;;7.60;99.90;;;;;;5069117;28;20036;-67
2021/12/16 14:43:56;;;;;;;14.82;9.63;;;7.50;99.90;;;;;;5068291;28;20024;-67
2021/12/16 14:46:31;;;;;;;14.57;9.63;;;7.50;99.90;;;;;;5055944;28;20024;-68
2021/12/16 14:48:57;;;;;;;14.77;9.88;;;7.50;99.90;;;;;;5065859;28;20024;-67
2021/12/16 14:51:23;;;;;;;17.83;9.80;;;7.50;99.90;;;;;;5056030;28;20379;-68
2021/12/16 14:53:54;;;;;;;17.85;10.07;;;7.50;99.90;;;;;;5055870;28;20024;-68
2021/12/16 14:56:24;;;;;;;18.70;10.27;;;7.50;99.90;;;;;;5057450;28;20021;-67
2021/12/16 14:58:54;;;;;;;15.45;9.40;;;7.50;99.90;;;;;;5054994;28;20107;-68
2021/12/16 15:01:32;;;;;;;15.38;10.10;;;7.50;99.90;;;;;;5065645;28;20025;-67
2021/12/16 15:04:01;;;;;;;20.23;10.98;;;7.40;99.90;;;;;;5067625;28;20032;-68
2021/12/16 15:06:43;;;;;;;21.88;12.65;;;7.40;99.90;;;;;;5068985;28;20115;-67
2021/12/16 15:09:38;;;;;;;20.45;11.95;;;7.40;99.90;;;;;;5051733;28;20029;-68
2021/12/16 15:15:07;;;;;;;20.33;11.13;;;7.30;99.90;;;;;;5061027;28;20541;-67
2021/12/16 15:45:27;;;;;;;18.27;11.07;;;7.10;99.90;;;;;;5061021;28;20044;-69
2021/12/16 15:47:57;;;;;;;18.08;10.77;;;7.10;99.90;;;;;;5051122;28;20020;-68
2021/12/16 15:50:29;;;;;;;16.17;10.10;;;7.10;99.90;;;;;;5051228;28;20020;-69
2021/12/16 15:52:57;;;;;;;;;;;7.10;99.90;;;;;;5052198;28;20668;-67
2021/12/16 15:55:32;;;;;;;16.30;10.00;;;7.20;99.90;;;;;;5051451;28;19943;-69
2021/12/16 15:58:16;;;;;;;16.45;10.05;;;7.10;99.90;;;;;;5049728;28;20025;-69
2021/12/16 16:00:46;;;;;;;16.55;10.73;;;7.10;99.90;;;;;;5066221;28;20135;-69
2021/12/16 16:03:17;;;;;;;19.58;10.27;;;7.20;99.90;;;;;;5069390;28;20658;-69
2021/12/16 16:05:47;;;;;;;17.33;10.48;;;7.10;99.90;;;;;;5051468;28;20036;-67
2021/12/16 16:08:17;;;;;;;18.63;10.93;;;7.10;99.90;;;;;;5050936;28;20388;-68
2021/12/16 16:10:46;;;;;;;17.17;10.60;;;7.10;99.90;;;;;;5051959;28;20044;-67
2021/12/16 16:13:21;;;;;;;17.92;10.27;;;7.10;99.90;;;;;;5068676;28;20380;-68
2021/12/16 16:15:54;;;;;;;21.65;11.35;;;7.10;99.90;;;;;;5051392;28;20467;-68
2021/12/16 16:20:59;;;;;;;17.35;10.25;;;7.00;99.90;;;;;;5069021;28;20040;-68
2021/12/16 16:23:27;;;;;;;19.08;9.88;;;7.10;99.90;;;;;;5051565;28;20736;-69
2021/12/16 16:25:54;;;;;;;16.60;10.13;;;7.00;99.90;;;;;;5051213;28;20132;-67
2021/12/16 16:28:25;;;;;;;22.80;11.90;;;7.00;99.90;;;;;;5050753;28;20562;-67
2021/12/16 16:30:54;;;;;;;19.10;10.43;;;7.00;99.90;;;;;;5054458;28;20036;-69
2021/12/16 16:33:24;;;;;;;18.27;11.15;;;7.00;99.90;;;;;;5049952;28;20025;-69
2021/12/16 16:35:56;;;;;;;19.92;11.50;;;7.00;99.90;;;;;;5051281;28;20032;-67
2021/12/16 16:38:30;;;;;;;19.50;10.90;;;6.90;99.90;;;;;;5050738;28;20028;-67
2021/12/16 16:40:59;;;;;;;23.83;11.32;;;6.90;99.90;;;;;;5053058;28;20029;-67
2021/12/16 16:43:26;;;;;;;19.33;10.90;;;6.90;99.90;;;;;;5051798;28;20044;-67
2021/12/16 16:45:55;;;;;;;23.08;14.20;;;6.80;99.90;;;;;;5050093;28;20077;-68
2021/12/16 16:48:41;;;;;;;23.85;13.60;;;6.80;99.90;;;;;;5050643;28;20474;-67
2021/12/16 16:51:19;;;;;;;19.35;11.35;;;6.70;99.90;;;;;;5053985;28;20025;-68
2021/12/16 16:53:53;;;;;;;19.80;11.95;;;6.70;99.90;;;;;;5051612;28;20033;-70
2021/12/16 16:57:07;;;;;;;26.38;13.43;;;6.70;99.90;;;;;;5055523;28;20029;-67